Spacecraft Satellite overpass computed based on SGP4 code. Updated every day at 2:25 LT
Spacecraft : Terra    
         GMT                             Satellite      Satellite     Solar          Solar         Scat ang       
  year-mo-da hr:mn:sc    elevation     azimuth    elevation   azimuth    (bk=180)     
  2018-12-12 08:05:31     13.4             87.1          10.7           147.4         121.1
  2018-12-12 09:43:55     87.8            285.6          16.5           169.9         105.5
  2018-12-12 11:21:00     15.1            304.6          16.1           193.1          74.4
  2018-12-12 19:16:43     25.7             61.9         -44.0           288.2        -999.0
  2018-12-12 20:54:14     48.7            260.5         -57.2           317.6        -999.0
Spacecraft : Aqua    
         GMT                             Satellite      Satellite     Solar          Solar         Scat ang       
  year-mo-da hr:mn:sc    elevation     azimuth    elevation   azimuth    (bk=180)     
  2018-12-12 00:18:40     50.6             99.9         -54.7            49.7        -999.0
  2018-12-12 01:56:09     24.9            298.5         -40.7            76.5        -999.0
  2018-12-12 09:51:51     15.6             55.8          16.7           171.8          70.9
  2018-12-12 11:28:57     89.5            255.1          15.8           195.0         106.1
  2018-12-12 13:07:23     12.9            273.3           8.9           217.0         124.7
  2018-12-12 23:23:15     17.3             89.5         -60.5            27.7        -999.0
Spacecraft : CALIPSO    
         GMT                             Satellite      Satellite     Solar          Solar         Scat ang       
  year-mo-da hr:mn:sc    elevation     azimuth    elevation   azimuth    (bk=180)     
  2018-12-12 01:08:40     73.5            287.2         -48.0            64.8        -999.0
  2018-12-12 02:45:18     12.5            306.3         -32.9            86.8        -999.0
  2018-12-12 10:39:25     28.1             63.3          17.0           183.2          73.6
  2018-12-12 12:16:41     42.1            261.7          13.1           206.0         123.9
Spacecraft : CloudSat    
         GMT                             Satellite      Satellite     Solar          Solar         Scat ang       
  year-mo-da hr:mn:sc    elevation     azimuth    elevation   azimuth    (bk=180)     
  2018-12-12 01:09:26     73.7            287.3         -47.8            65.1        -999.0
  2018-12-12 02:46:04     12.6            306.3         -32.8            86.9        -999.0
  2018-12-12 10:40:11     28.1             63.2          17.0           183.4          73.4
  2018-12-12 12:17:26     42.2            261.7          13.0           206.1         124.0
Spacecraft : ISS    
         GMT                             Satellite      Satellite     Solar          Solar         Scat ang       
  year-mo-da hr:mn:sc    elevation     azimuth    elevation   azimuth    (bk=180)     
  2018-12-12 10:01:01     21.3            143.1          16.9           173.9         150.6
  2018-12-12 11:37:10     81.1            161.2          15.4           196.9         112.6
  2018-12-12 13:13:46     63.2              1.3           8.2           218.3          76.8
  2018-12-12 14:50:19     70.3            201.0          -2.8           237.3        -999.0
  2018-12-12 16:26:24     17.4            219.3         -16.9           254.6        -999.0